Time;durP1;ratioP1;P1;durP2;ratioP2;P2;SDS_P1;SDS_P2;PMS_P1;PMS_P2;Temp;Humidity;BMP_temperature;BMP_pressure;BME280_temperature;BME280_humidity;BME280_pressure;Samples;Min_cycle;Max_cycle;Signal;HPM_P1;HPM_P2
2023/04/10 00:05:16;;;;;;;14.10;8.90;;;;;;;10.64;74.94;101308.77;681711;1267;139111;-87
2023/04/10 00:20:21;;;;;;;16.60;9.70;;;;;;;10.37;74.88;101299.98;681656;1266;138789;-86
2023/04/10 00:35:24;;;;;;;21.00;10.60;;;;;;;10.11;75.03;101303.73;681689;1266;138738;-86
2023/04/10 00:50:28;;;;;;;26.40;11.30;;;;;;;9.85;75.18;101297.46;681554;1266;139038;-86
2023/04/10 01:05:40;;;;;;;19.50;10.10;;;;;;;9.65;75.24;101290.10;681776;1266;138895;-88
2023/04/10 01:20:44;;;;;;;34.30;15.00;;;;;;;9.53;75.19;101294.42;681510;1266;138698;-86
2023/04/10 01:35:53;;;;;;;18.50;8.80;;;;;;;9.38;75.24;101295.91;681683;1266;138667;-87
2023/04/10 01:51:00;;;;;;;15.00;9.10;;;;;;;9.16;75.11;101300.14;681571;1266;138495;-86
2023/04/10 02:06:06;;;;;;;19.60;8.60;;;;;;;9.02;75.28;101307.69;681579;1269;138640;-85
2023/04/10 02:21:10;;;;;;;23.70;10.30;;;;;;;8.89;75.54;101309.05;681623;1267;138395;-87
2023/04/10 02:36:16;;;;;;;29.40;14.60;;;;;;;8.72;75.51;101308.94;681604;1266;141441;-89
2023/04/10 02:51:19;;;;;;;19.30;10.30;;;;;;;8.63;75.46;101312.77;681515;1266;138681;-88
2023/04/10 03:06:25;;;;;;;19.50;10.60;;;;;;;8.58;75.42;101314.02;681839;1266;138666;-89
2023/04/10 03:21:31;;;;;;;23.60;13.40;;;;;;;8.39;75.49;101313.59;681934;1267;138775;-87
2023/04/10 03:36:34;;;;;;;17.40;9.80;;;;;;;8.25;75.65;101314.59;681674;1264;139001;-89
2023/04/10 03:51:37;;;;;;;20.20;11.60;;;;;;;8.12;75.47;101325.89;681547;1267;138582;-89
2023/04/10 04:06:41;;;;;;;25.20;12.60;;;;;;;8.06;75.69;101335.79;681666;1263;138658;-88
2023/04/10 04:21:59;;;;;;;;;;;;;;;7.98;76.00;101347.43;681391;1267;138711;-88
2023/04/10 04:37:22;;;;;;;21.80;12.50;;;;;;;7.97;76.31;101359.52;681407;1264;124850;-88
2023/04/10 04:52:54;;;;;;;20.80;11.50;;;;;;;7.99;76.42;101365.30;681019;1267;138756;-88
2023/04/10 05:08:09;;;;;;;24.30;12.10;;;;;;;8.07;76.43;101375.10;681287;1264;139057;-88
2023/04/10 05:23:22;;;;;;;21.30;12.20;;;;;;;8.19;76.58;101388.33;681479;1267;139208;-88
2023/04/10 05:38:48;;;;;;;18.10;10.70;;;;;;;8.37;76.49;101402.58;681318;1264;138862;-88
2023/04/10 05:54:13;;;;;;;35.20;16.50;;;;;;;8.73;76.74;101406.02;681620;1263;138603;-87
2023/04/10 06:09:28;;;;;;;33.40;17.10;;;;;;;9.29;76.93;101406.50;681213;1266;138901;-87
2023/04/10 06:24:31;;;;;;;30.80;17.30;;;;;;;9.71;76.74;101405.13;681603;1266;138650;-87
2023/04/10 06:39:35;;;;;;;19.60;12.20;;;;;;;10.11;76.20;101406.66;681524;1264;138868;-85
2023/04/10 06:54:38;;;;;;;23.90;12.90;;;;;;;10.76;76.35;101410.23;681620;1267;139059;-87
2023/04/10 07:09:42;;;;;;;15.20;9.20;;;;;;;11.86;76.28;101417.27;681514;1267;139262;-86
2023/04/10 07:24:45;;;;;;;14.40;8.70;;;;;;;13.40;75.92;101417.19;681722;1266;138864;-85
2023/04/10 07:39:49;;;;;;;12.50;7.40;;;;;;;14.94;74.88;101415.45;681581;1262;138831;-86
2023/04/10 07:54:52;;;;;;;9.40;5.10;;;;;;;16.33;72.56;101418.89;681506;1267;138891;-87
2023/04/10 08:09:56;;;;;;;5.70;3.80;;;;;;;17.28;68.32;101414.95;681529;1263;138689;-87
2023/04/10 08:24:59;;;;;;;5.70;3.90;;;;;;;18.27;67.70;101405.05;681821;1266;138711;-85
2023/04/10 08:40:02;;;;;;;6.10;4.80;;;;;;;19.17;66.60;101399.55;681578;1267;138706;-86
2023/04/10 08:55:08;;;;;;;8.40;4.10;;;;;;;20.01;64.22;101388.04;681496;1266;138621;-86
2023/04/10 09:10:11;;;;;;;8.40;5.50;;;;;;;20.73;63.18;101380.65;681571;1267;138803;-87
2023/04/10 09:25:35;;;;;;;10.10;5.90;;;;;;;21.55;61.66;101366.81;681523;1266;138367;-86
2023/04/10 09:40:38;;;;;;;7.50;4.50;;;;;;;22.25;60.38;101345.01;681669;1267;138260;-87
2023/04/10 09:55:42;;;;;;;12.90;7.40;;;;;;;22.45;58.55;101325.27;681603;1270;138011;-87
2023/04/10 10:10:58;;;;;;;8.20;4.60;;;;;;;23.17;58.67;101311.14;681840;1263;138157;-86
2023/04/10 10:26:05;;;;;;;6.10;3.80;;;;;;;23.85;57.97;101294.77;681673;1263;137979;-87
2023/04/10 10:41:08;;;;;;;5.90;4.40;;;;;;;24.38;55.64;101277.65;681577;1263;138744;-86
2023/04/10 10:56:18;;;;;;;6.30;4.30;;;;;;;24.80;54.37;101265.69;681651;1266;138076;-85
2023/04/10 11:11:26;;;;;;;5.10;3.50;;;;;;;24.83;52.82;101250.81;681935;1263;138113;-85
2023/04/10 11:26:33;;;;;;;6.60;5.40;;;;;;;24.87;52.88;101233.71;681663;1263;137984;-85
2023/04/10 11:41:39;;;;;;;8.50;6.50;;;;;;;25.59;51.55;101219.08;681885;1263;138355;-86
2023/04/10 11:56:53;;;;;;;8.80;5.80;;;;;;;26.46;51.34;101210.36;681620;1263;138290;-85
2023/04/10 12:12:00;;;;;;;12.80;8.90;;;;;;;26.26;49.96;101193.02;681747;1266;138370;-87
2023/04/10 12:27:03;;;;;;;7.90;5.20;;;;;;;25.92;49.43;101179.59;681628;1263;138458;-87
2023/04/10 12:42:15;;;;;;;11.50;5.70;;;;;;;25.02;50.22;101159.88;681750;1264;138133;-87
2023/04/10 12:57:26;;;;;;;5.60;4.50;;;;;;;26.69;49.10;101142.94;681593;1263;138091;-86
2023/04/10 13:12:30;;;;;;;7.70;4.10;;;;;;;27.70;47.97;101125.52;681732;1263;138065;-85
2023/04/10 13:27:33;;;;;;;5.30;4.20;;;;;;;27.94;44.93;101098.43;681591;1266;138044;-85
2023/04/10 13:42:37;;;;;;;6.70;5.10;;;;;;;27.98;45.32;101074.89;681702;1266;138194;-79
2023/04/10 13:57:44;;;;;;;8.70;4.20;;;;;;;28.37;44.26;101064.38;681813;1263;138264;-86
2023/04/10 14:12:47;;;;;;;5.90;4.30;;;;;;;29.15;43.46;101051.19;681705;1268;138145;-85
2023/04/10 14:27:50;;;;;;;7.60;5.80;;;;;;;30.08;40.86;101037.82;681610;1266;137962;-84
2023/04/10 14:42:55;;;;;;;6.00;4.00;;;;;;;34.60;39.05;101018.41;681734;1266;138015;-88
2023/04/10 14:57:58;;;;;;;9.60;6.00;;;;;;;30.42;40.21;100995.38;681269;1263;138690;-86
2023/04/10 15:13:02;;;;;;;13.60;8.10;;;;;;;31.46;40.55;100983.34;681713;1268;138081;-84
2023/04/10 15:28:07;;;;;;;4.60;3.50;;;;;;;29.94;40.60;100967.70;681507;1266;137945;-86
2023/04/10 15:43:11;;;;;;;5.60;4.20;;;;;;;37.33;37.50;100958.39;681387;1266;139014;-85
2023/04/10 15:58:15;;;;;;;4.80;3.60;;;;;;;33.41;36.75;100933.94;681750;1268;138385;-85
2023/04/10 16:13:19;;;;;;;5.70;4.00;;;;;;;29.54;38.80;100911.83;681478;1272;138358;-86
2023/04/10 16:28:24;;;;;;;108.90;64.90;;;;;;;25.71;41.60;100892.06;681718;1266;137934;-86
2023/04/10 16:43:28;;;;;;;14.90;9.80;;;;;;;24.42;43.60;100873.91;681621;1263;138645;-86
2023/04/10 16:58:34;;;;;;;168.60;81.80;;;;;;;23.31;45.22;100856.50;681725;1267;138366;-86
2023/04/10 17:13:40;;;;;;;114.00;70.00;;;;;;;22.80;46.80;100844.58;681331;1269;138817;-87
2023/04/10 17:28:45;;;;;;;386.70;203.60;;;;;;;21.44;48.18;100842.75;681600;1268;138414;-85
2023/04/10 17:43:49;;;;;;;329.40;145.20;;;;;;;19.81;49.91;100836.70;681553;1266;138707;-86
2023/04/10 17:58:57;;;;;;;231.50;103.00;;;;;;;19.03;51.61;100847.01;681621;1266;139022;-86
2023/04/10 18:14:01;;;;;;;237.90;92.30;;;;;;;18.59;52.64;100846.11;681246;1267;174547;-86
2023/04/10 18:29:05;;;;;;;87.80;36.60;;;;;;;17.96;54.23;100842.11;681548;1268;138763;-85
2023/04/10 18:44:09;;;;;;;63.80;29.60;;;;;;;17.59;55.94;100853.00;681333;1267;139021;-85
2023/04/10 18:59:14;;;;;;;133.80;59.90;;;;;;;17.08;57.17;100850.35;681586;1266;138246;-84
2023/04/10 19:14:17;;;;;;;64.90;32.10;;;;;;;16.64;58.67;100841.69;681472;1268;138584;-85
2023/04/10 19:29:21;;;;;;;52.60;23.70;;;;;;;16.17;59.38;100827.16;681353;1268;140578;-86
2023/04/10 19:44:25;;;;;;;157.90;64.20;;;;;;;15.83;60.22;100818.14;681213;1268;138376;-85
2023/04/10 19:59:29;;;;;;;162.00;67.50;;;;;;;15.40;61.19;100808.10;681397;1270;138813;-84
2023/04/10 20:14:33;;;;;;;134.40;55.10;;;;;;;15.06;61.64;100790.19;681278;1269;139344;-83
2023/04/10 20:29:37;;;;;;;243.80;102.10;;;;;;;14.61;62.22;100776.76;681280;1267;139249;-84
2023/04/10 20:44:40;;;;;;;320.00;120.70;;;;;;;14.33;63.15;100767.50;681289;1266;139601;-83
2023/04/10 20:59:45;;;;;;;90.70;38.50;;;;;;;14.09;63.68;100754.08;680873;1269;139231;-83
2023/04/10 21:14:50;;;;;;;81.20;36.30;;;;;;;13.67;64.66;100740.79;680824;1267;139461;-83
2023/04/10 21:29:53;;;;;;;89.60;42.70;;;;;;;13.44;65.89;100729.76;681187;1267;139157;-84
2023/04/10 21:44:57;;;;;;;144.70;65.90;;;;;;;13.27;65.70;100717.97;681266;1267;139243;-84
2023/04/10 22:00:00;;;;;;;210.10;92.90;;;;;;;12.96;65.89;100704.48;681178;1269;139686;-85
2023/04/10 22:15:05;;;;;;;186.40;87.00;;;;;;;12.68;66.40;100697.20;681010;1268;139449;-82
2023/04/10 22:30:09;;;;;;;180.00;78.20;;;;;;;12.52;66.19;100683.65;681214;1264;139194;-84
2023/04/10 22:45:12;;;;;;;128.90;57.40;;;;;;;12.35;66.41;100669.42;681063;1267;138999;-84
2023/04/10 23:00:16;;;;;;;73.80;34.70;;;;;;;12.06;66.59;100648.67;681648;1267;139379;-84
2023/04/10 23:15:19;;;;;;;48.90;26.10;;;;;;;11.73;66.99;100627.97;681472;1263;139055;-83
2023/04/10 23:30:22;;;;;;;56.00;26.90;;;;;;;11.48;66.95;100610.41;681394;1266;138715;-84
2023/04/10 23:45:25;;;;;;;52.30;27.30;;;;;;;11.32;67.40;100579.73;681414;1267;138945;-83
